sensor_id;sensor_type;location;lat;lon;timestamp;temperature;humidity
26990;DHT22;14537;47.788;11.858;2023-06-24T00:00:09;14.90;99.90
26990;DHT22;14537;47.788;11.858;2023-06-24T00:02:37;14.80;99.90
26990;DHT22;14537;47.788;11.858;2023-06-24T00:05:04;14.80;99.90
26990;DHT22;14537;47.788;11.858;2023-06-24T00:07:30;14.70;99.90
26990;DHT22;14537;47.788;11.858;2023-06-24T00:09:56;14.80;99.90
26990;DHT22;14537;47.788;11.858;2023-06-24T00:12:21;14.80;99.90
26990;DHT22;14537;47.788;11.858;2023-06-24T00:14:48;14.70;99.90
26990;DHT22;14537;47.788;11.858;2023-06-24T00:17:14;14.60;99.90
26990;DHT22;14537;47.788;11.858;2023-06-24T00:19:41;14.60;99.90
26990;DHT22;14537;47.788;11.858;2023-06-24T00:22:09;14.70;99.90
26990;DHT22;14537;47.788;11.858;2023-06-24T00:24:35;14.60;99.90
26990;DHT22;14537;47.788;11.858;2023-06-24T00:27:00;14.60;99.90
26990;DHT22;14537;47.788;11.858;2023-06-24T00:29:26;14.60;99.90
26990;DHT22;14537;47.788;11.858;2023-06-24T00:31:51;14.60;99.90
26990;DHT22;14537;47.788;11.858;2023-06-24T00:34:17;14.50;99.90
26990;DHT22;14537;47.788;11.858;2023-06-24T00:36:45;14.50;99.90
26990;DHT22;14537;47.788;11.858;2023-06-24T00:39:12;14.50;99.90
26990;DHT22;14537;47.788;11.858;2023-06-24T00:41:38;14.60;99.90
26990;DHT22;14537;47.788;11.858;2023-06-24T00:44:03;14.60;99.90
26990;DHT22;14537;47.788;11.858;2023-06-24T00:46:29;14.50;99.90
26990;DHT22;14537;47.788;11.858;2023-06-24T00:48:59;14.40;99.90
26990;DHT22;14537;47.788;11.858;2023-06-24T00:51:26;14.50;99.90
26990;DHT22;14537;47.788;11.858;2023-06-24T00:53:56;14.50;99.90
26990;DHT22;14537;47.788;11.858;2023-06-24T00:56:26;14.40;99.90
26990;DHT22;14537;47.788;11.858;2023-06-24T00:58:54;14.40;99.90
26990;DHT22;14537;47.788;11.858;2023-06-24T01:01:20;14.50;99.90
26990;DHT22;14537;47.788;11.858;2023-06-24T01:03:46;14.40;99.90
26990;DHT22;14537;47.788;11.858;2023-06-24T01:06:13;14.50;99.90
26990;DHT22;14537;47.788;11.858;2023-06-24T01:08:39;14.50;99.90
26990;DHT22;14537;47.788;11.858;2023-06-24T01:11:05;14.50;99.90
26990;DHT22;14537;47.788;11.858;2023-06-24T01:13:30;14.50;99.90
26990;DHT22;14537;47.788;11.858;2023-06-24T01:16:00;14.60;99.90
26990;DHT22;14537;47.788;11.858;2023-06-24T01:18:34;14.60;99.90
26990;DHT22;14537;47.788;11.858;2023-06-24T01:21:15;14.50;99.90
26990;DHT22;14537;47.788;11.858;2023-06-24T01:23:54;14.50;99.90
26990;DHT22;14537;47.788;11.858;2023-06-24T01:27:05;14.50;99.90
26990;DHT22;14537;47.788;11.858;2023-06-24T01:32:43;14.50;99.90
26990;DHT22;14537;47.788;11.858;2023-06-24T01:35:21;14.50;99.90
26990;DHT22;14537;47.788;11.858;2023-06-24T01:37:51;14.40;99.90
26990;DHT22;14537;47.788;11.858;2023-06-24T01:40:26;14.50;99.90
26990;DHT22;14537;47.788;11.858;2023-06-24T01:42:53;14.50;99.90
26990;DHT22;14537;47.788;11.858;2023-06-24T01:45:26;14.50;99.90
26990;DHT22;14537;47.788;11.858;2023-06-24T01:48:11;14.60;99.90
26990;DHT22;14537;47.788;11.858;2023-06-24T01:50:42;14.60;99.90
26990;DHT22;14537;47.788;11.858;2023-06-24T01:53:08;14.60;99.90
26990;DHT22;14537;47.788;11.858;2023-06-24T01:55:34;14.50;99.90
26990;DHT22;14537;47.788;11.858;2023-06-24T01:58:02;14.60;99.90
26990;DHT22;14537;47.788;11.858;2023-06-24T02:00:30;14.60;99.90
26990;DHT22;14537;47.788;11.858;2023-06-24T02:02:57;14.70;99.90
26990;DHT22;14537;47.788;11.858;2023-06-24T02:05:24;14.70;99.90
26990;DHT22;14537;47.788;11.858;2023-06-24T02:07:52;14.70;99.90
26990;DHT22;14537;47.788;11.858;2023-06-24T02:10:19;14.70;99.90
26990;DHT22;14537;47.788;11.858;2023-06-24T02:12:46;14.70;99.90
26990;DHT22;14537;47.788;11.858;2023-06-24T02:15:13;14.70;99.90
26990;DHT22;14537;47.788;11.858;2023-06-24T02:17:40;14.70;99.90
26990;DHT22;14537;47.788;11.858;2023-06-24T02:20:07;14.70;99.90
26990;DHT22;14537;47.788;11.858;2023-06-24T02:22:36;14.70;99.90
26990;DHT22;14537;47.788;11.858;2023-06-24T02:25:04;14.70;99.90
26990;DHT22;14537;47.788;11.858;2023-06-24T02:27:32;14.60;99.90
26990;DHT22;14537;47.788;11.858;2023-06-24T02:29:58;14.60;99.90
26990;DHT22;14537;47.788;11.858;2023-06-24T02:32:25;14.60;99.90
26990;DHT22;14537;47.788;11.858;2023-06-24T02:34:50;14.60;99.90
26990;DHT22;14537;47.788;11.858;2023-06-24T02:37:16;14.60;99.90
26990;DHT22;14537;47.788;11.858;2023-06-24T02:39:42;14.60;99.90
26990;DHT22;14537;47.788;11.858;2023-06-24T02:42:11;14.50;99.90
26990;DHT22;14537;47.788;11.858;2023-06-24T02:44:40;14.50;99.90
26990;DHT22;14537;47.788;11.858;2023-06-24T02:47:09;14.60;99.90
26990;DHT22;14537;47.788;11.858;2023-06-24T02:49:35;14.50;99.90
26990;DHT22;14537;47.788;11.858;2023-06-24T02:52:02;14.60;99.90
26990;DHT22;14537;47.788;11.858;2023-06-24T02:54:29;14.60;99.90
26990;DHT22;14537;47.788;11.858;2023-06-24T02:56:55;14.60;99.90
26990;DHT22;14537;47.788;11.858;2023-06-24T02:59:23;14.50;99.90
26990;DHT22;14537;47.788;11.858;2023-06-24T03:01:50;14.50;99.90
26990;DHT22;14537;47.788;11.858;2023-06-24T03:04:17;14.50;99.90
26990;DHT22;14537;47.788;11.858;2023-06-24T03:06:44;14.50;99.90
26990;DHT22;14537;47.788;11.858;2023-06-24T03:09:09;14.50;99.90
26990;DHT22;14537;47.788;11.858;2023-06-24T03:11:42;14.50;99.90
26990;DHT22;14537;47.788;11.858;2023-06-24T03:14:08;14.50;99.90
26990;DHT22;14537;47.788;11.858;2023-06-24T03:16:35;14.50;99.90
26990;DHT22;14537;47.788;11.858;2023-06-24T03:19:00;14.50;99.90
26990;DHT22;14537;47.788;11.858;2023-06-24T03:21:26;14.50;99.90
26990;DHT22;14537;47.788;11.858;2023-06-24T03:23:54;14.40;99.90
26990;DHT22;14537;47.788;11.858;2023-06-24T03:26:20;14.30;99.90
26990;DHT22;14537;47.788;11.858;2023-06-24T03:28:45;14.30;99.90
26990;DHT22;14537;47.788;11.858;2023-06-24T03:31:11;14.40;99.90
26990;DHT22;14537;47.788;11.858;2023-06-24T03:33:36;14.40;99.90
26990;DHT22;14537;47.788;11.858;2023-06-24T03:36:02;14.40;99.90
26990;DHT22;14537;47.788;11.858;2023-06-24T03:38:28;14.40;99.90
26990;DHT22;14537;47.788;11.858;2023-06-24T03:40:54;14.40;99.90
26990;DHT22;14537;47.788;11.858;2023-06-24T03:43:20;14.40;99.90
26990;DHT22;14537;47.788;11.858;2023-06-24T03:45:45;14.50;99.90
26990;DHT22;14537;47.788;11.858;2023-06-24T03:48:11;14.40;99.90
26990;DHT22;14537;47.788;11.858;2023-06-24T03:50:37;14.40;99.90
26990;DHT22;14537;47.788;11.858;2023-06-24T03:53:04;14.40;99.90
26990;DHT22;14537;47.788;11.858;2023-06-24T03:55:30;14.50;99.90
26990;DHT22;14537;47.788;11.858;2023-06-24T03:57:55;14.40;99.90
26990;DHT22;14537;47.788;11.858;2023-06-24T04:00:21;14.50;99.90
26990;DHT22;14537;47.788;11.858;2023-06-24T04:02:47;14.50;99.90
26990;DHT22;14537;47.788;11.858;2023-06-24T04:05:13;14.50;99.90
26990;DHT22;14537;47.788;11.858;2023-06-24T04:07:38;14.50;99.90
26990;DHT22;14537;47.788;11.858;2023-06-24T04:10:05;14.60;99.90
26990;DHT22;14537;47.788;11.858;2023-06-24T04:12:35;14.50;99.90
26990;DHT22;14537;47.788;11.858;2023-06-24T04:15:02;14.50;99.90
26990;DHT22;14537;47.788;11.858;2023-06-24T04:17:28;14.60;99.90
26990;DHT22;14537;47.788;11.858;2023-06-24T04:19:54;14.60;99.90
26990;DHT22;14537;47.788;11.858;2023-06-24T04:22:20;14.60;99.90
26990;DHT22;14537;47.788;11.858;2023-06-24T04:24:46;14.60;99.90
26990;DHT22;14537;47.788;11.858;2023-06-24T04:27:11;14.60;99.90
26990;DHT22;14537;47.788;11.858;2023-06-24T04:29:37;14.60;99.90
26990;DHT22;14537;47.788;11.858;2023-06-24T04:32:03;14.60;99.90
26990;DHT22;14537;47.788;11.858;2023-06-24T04:34:28;14.60;99.90
26990;DHT22;14537;47.788;11.858;2023-06-24T04:36:54;14.60;99.90
26990;DHT22;14537;47.788;11.858;2023-06-24T04:39:19;14.60;99.90
26990;DHT22;14537;47.788;11.858;2023-06-24T04:41:45;14.60;99.90
26990;DHT22;14537;47.788;11.858;2023-06-24T04:44:12;14.60;99.90
26990;DHT22;14537;47.788;11.858;2023-06-24T04:46:37;14.60;99.90
26990;DHT22;14537;47.788;11.858;2023-06-24T04:49:05;14.60;99.90
26990;DHT22;14537;47.788;11.858;2023-06-24T04:51:31;14.60;99.90
26990;DHT22;14537;47.788;11.858;2023-06-24T04:53:57;14.60;99.90
26990;DHT22;14537;47.788;11.858;2023-06-24T04:56:23;14.70;99.90
26990;DHT22;14537;47.788;11.858;2023-06-24T04:58:48;14.80;99.90
26990;DHT22;14537;47.788;11.858;2023-06-24T05:01:14;14.80;99.90
26990;DHT22;14537;47.788;11.858;2023-06-24T05:03:40;14.90;99.90
26990;DHT22;14537;47.788;11.858;2023-06-24T05:06:05;15.00;99.90
26990;DHT22;14537;47.788;11.858;2023-06-24T05:08:31;15.00;99.90
26990;DHT22;14537;47.788;11.858;2023-06-24T05:10:56;15.10;99.90
26990;DHT22;14537;47.788;11.858;2023-06-24T05:13:23;15.10;99.90
26990;DHT22;14537;47.788;11.858;2023-06-24T05:15:48;15.10;99.90
26990;DHT22;14537;47.788;11.858;2023-06-24T05:18:14;15.20;99.90
26990;DHT22;14537;47.788;11.858;2023-06-24T05:20:40;15.20;99.90
26990;DHT22;14537;47.788;11.858;2023-06-24T05:23:05;15.20;99.90
26990;DHT22;14537;47.788;11.858;2023-06-24T05:25:31;15.30;99.90
26990;DHT22;14537;47.788;11.858;2023-06-24T05:27:57;15.30;99.90
26990;DHT22;14537;47.788;11.858;2023-06-24T05:30:23;15.30;99.90
26990;DHT22;14537;47.788;11.858;2023-06-24T05:32:48;15.40;99.90
26990;DHT22;14537;47.788;11.858;2023-06-24T05:35:14;15.40;99.90
26990;DHT22;14537;47.788;11.858;2023-06-24T05:37:40;15.40;99.90
26990;DHT22;14537;47.788;11.858;2023-06-24T05:40:06;15.50;99.90
26990;DHT22;14537;47.788;11.858;2023-06-24T05:42:32;15.60;99.90
26990;DHT22;14537;47.788;11.858;2023-06-24T05:44:59;15.50;99.90
26990;DHT22;14537;47.788;11.858;2023-06-24T05:47:24;15.50;99.90
26990;DHT22;14537;47.788;11.858;2023-06-24T05:49:50;15.60;99.90
26990;DHT22;14537;47.788;11.858;2023-06-24T05:52:16;15.80;99.90
26990;DHT22;14537;47.788;11.858;2023-06-24T05:54:41;15.90;99.90
26990;DHT22;14537;47.788;11.858;2023-06-24T05:57:07;15.60;99.90
26990;DHT22;14537;47.788;11.858;2023-06-24T05:59:33;15.70;99.90
26990;DHT22;14537;47.788;11.858;2023-06-24T06:01:59;15.90;99.90
26990;DHT22;14537;47.788;11.858;2023-06-24T06:04:27;16.00;99.90
26990;DHT22;14537;47.788;11.858;2023-06-24T06:06:52;16.10;99.90
26990;DHT22;14537;47.788;11.858;2023-06-24T06:09:18;16.30;99.90
26990;DHT22;14537;47.788;11.858;2023-06-24T06:11:44;16.40;99.90
26990;DHT22;14537;47.788;11.858;2023-06-24T06:14:09;16.50;99.90
26990;DHT22;14537;47.788;11.858;2023-06-24T06:16:35;16.60;99.90
26990;DHT22;14537;47.788;11.858;2023-06-24T06:19:01;16.60;99.90
26990;DHT22;14537;47.788;11.858;2023-06-24T06:21:26;16.60;99.90
26990;DHT22;14537;47.788;11.858;2023-06-24T06:23:52;16.60;99.90
26990;DHT22;14537;47.788;11.858;2023-06-24T06:26:18;16.70;99.90
26990;DHT22;14537;47.788;11.858;2023-06-24T06:28:43;16.80;99.90
26990;DHT22;14537;47.788;11.858;2023-06-24T06:31:09;17.00;99.90
26990;DHT22;14537;47.788;11.858;2023-06-24T06:33:34;17.10;99.90
26990;DHT22;14537;47.788;11.858;2023-06-24T06:36:00;17.20;99.90
26990;DHT22;14537;47.788;11.858;2023-06-24T06:38:27;17.20;99.90
26990;DHT22;14537;47.788;11.858;2023-06-24T06:40:52;17.20;99.90
26990;DHT22;14537;47.788;11.858;2023-06-24T06:43:18;17.30;99.90
26990;DHT22;14537;47.788;11.858;2023-06-24T06:45:43;17.30;99.90
26990;DHT22;14537;47.788;11.858;2023-06-24T06:48:09;17.40;99.90
26990;DHT22;14537;47.788;11.858;2023-06-24T06:50:35;17.30;99.90
26990;DHT22;14537;47.788;11.858;2023-06-24T06:53:01;17.20;99.90
26990;DHT22;14537;47.788;11.858;2023-06-24T06:55:27;17.30;99.90
26990;DHT22;14537;47.788;11.858;2023-06-24T06:57:53;17.50;99.90
26990;DHT22;14537;47.788;11.858;2023-06-24T07:00:19;17.60;99.90
26990;DHT22;14537;47.788;11.858;2023-06-24T07:02:44;17.50;99.90
26990;DHT22;14537;47.788;11.858;2023-06-24T07:05:10;17.60;99.90
26990;DHT22;14537;47.788;11.858;2023-06-24T07:07:39;17.60;99.90
26990;DHT22;14537;47.788;11.858;2023-06-24T07:10:05;17.60;99.90
26990;DHT22;14537;47.788;11.858;2023-06-24T07:12:31;17.60;99.90
26990;DHT22;14537;47.788;11.858;2023-06-24T07:14:57;17.60;99.90
26990;DHT22;14537;47.788;11.858;2023-06-24T07:17:22;17.80;99.90
26990;DHT22;14537;47.788;11.858;2023-06-24T07:19:48;18.00;99.90
26990;DHT22;14537;47.788;11.858;2023-06-24T07:22:14;17.80;99.90
26990;DHT22;14537;47.788;11.858;2023-06-24T07:24:40;17.60;99.90
26990;DHT22;14537;47.788;11.858;2023-06-24T07:27:06;17.60;99.90
26990;DHT22;14537;47.788;11.858;2023-06-24T07:29:32;17.90;99.90
26990;DHT22;14537;47.788;11.858;2023-06-24T07:31:57;18.00;99.90
26990;DHT22;14537;47.788;11.858;2023-06-24T07:34:23;18.20;99.90
26990;DHT22;14537;47.788;11.858;2023-06-24T07:36:48;18.10;99.90
26990;DHT22;14537;47.788;11.858;2023-06-24T07:39:16;18.20;99.90
26990;DHT22;14537;47.788;11.858;2023-06-24T07:41:42;18.30;99.90
26990;DHT22;14537;47.788;11.858;2023-06-24T07:44:08;18.30;99.90
26990;DHT22;14537;47.788;11.858;2023-06-24T07:46:34;18.20;99.60
26990;DHT22;14537;47.788;11.858;2023-06-24T07:48:59;18.20;99.90
26990;DHT22;14537;47.788;11.858;2023-06-24T07:51:25;18.40;99.90
26990;DHT22;14537;47.788;11.858;2023-06-24T07:53:51;18.60;99.90
26990;DHT22;14537;47.788;11.858;2023-06-24T07:56:16;18.70;99.90
26990;DHT22;14537;47.788;11.858;2023-06-24T07:58:42;18.80;99.90
26990;DHT22;14537;47.788;11.858;2023-06-24T08:01:07;18.80;99.90
26990;DHT22;14537;47.788;11.858;2023-06-24T08:03:34;18.90;99.90
26990;DHT22;14537;47.788;11.858;2023-06-24T08:06:00;18.80;99.90
26990;DHT22;14537;47.788;11.858;2023-06-24T08:08:25;18.90;99.80
26990;DHT22;14537;47.788;11.858;2023-06-24T08:10:51;18.90;98.90
26990;DHT22;14537;47.788;11.858;2023-06-24T08:13:16;18.70;99.00
26990;DHT22;14537;47.788;11.858;2023-06-24T08:15:42;18.60;98.90
26990;DHT22;14537;47.788;11.858;2023-06-24T08:18:08;18.70;99.90
26990;DHT22;14537;47.788;11.858;2023-06-24T08:20:33;18.80;99.30
26990;DHT22;14537;47.788;11.858;2023-06-24T08:22:59;18.80;99.50
26990;DHT22;14537;47.788;11.858;2023-06-24T08:25:24;18.90;99.90
26990;DHT22;14537;47.788;11.858;2023-06-24T08:27:50;18.80;98.50
26990;DHT22;14537;47.788;11.858;2023-06-24T08:30:16;18.90;98.80
26990;DHT22;14537;47.788;11.858;2023-06-24T08:32:41;18.90;99.10
26990;DHT22;14537;47.788;11.858;2023-06-24T08:35:08;18.80;98.50
26990;DHT22;14537;47.788;11.858;2023-06-24T08:37:35;19.10;98.20
26990;DHT22;14537;47.788;11.858;2023-06-24T08:40:01;19.30;99.70
26990;DHT22;14537;47.788;11.858;2023-06-24T08:42:26;19.60;99.20
26990;DHT22;14537;47.788;11.858;2023-06-24T08:44:52;19.80;98.00
26990;DHT22;14537;47.788;11.858;2023-06-24T08:47:18;19.60;95.90
26990;DHT22;14537;47.788;11.858;2023-06-24T08:49:48;18.90;96.30
26990;DHT22;14537;47.788;11.858;2023-06-24T08:52:18;18.80;96.30
26990;DHT22;14537;47.788;11.858;2023-06-24T08:54:49;18.80;97.60
26990;DHT22;14537;47.788;11.858;2023-06-24T08:57:15;19.00;97.30
26990;DHT22;14537;47.788;11.858;2023-06-24T08:59:41;19.10;96.60
26990;DHT22;14537;47.788;11.858;2023-06-24T09:02:07;19.10;96.30
26990;DHT22;14537;47.788;11.858;2023-06-24T09:04:34;19.20;95.70
26990;DHT22;14537;47.788;11.858;2023-06-24T09:07:00;19.10;96.40
26990;DHT22;14537;47.788;11.858;2023-06-24T09:09:25;19.10;96.50
26990;DHT22;14537;47.788;11.858;2023-06-24T09:14:22;19.10;97.10
26990;DHT22;14537;47.788;11.858;2023-06-24T09:17:00;19.20;97.20
26990;DHT22;14537;47.788;11.858;2023-06-24T09:19:27;19.20;96.60
26990;DHT22;14537;47.788;11.858;2023-06-24T09:21:55;19.20;96.60
26990;DHT22;14537;47.788;11.858;2023-06-24T09:24:21;19.20;97.10
26990;DHT22;14537;47.788;11.858;2023-06-24T09:26:46;19.20;97.80
26990;DHT22;14537;47.788;11.858;2023-06-24T09:29:13;19.30;97.50
26990;DHT22;14537;47.788;11.858;2023-06-24T09:31:47;19.30;97.30
26990;DHT22;14537;47.788;11.858;2023-06-24T09:34:13;19.30;98.00
26990;DHT22;14537;47.788;11.858;2023-06-24T09:36:43;19.40;98.20
26990;DHT22;14537;47.788;11.858;2023-06-24T09:39:09;19.50;96.70
26990;DHT22;14537;47.788;11.858;2023-06-24T09:41:35;19.60;97.80
26990;DHT22;14537;47.788;11.858;2023-06-24T09:44:01;19.80;97.50
26990;DHT22;14537;47.788;11.858;2023-06-24T09:46:29;20.10;97.20
26990;DHT22;14537;47.788;11.858;2023-06-24T09:48:55;20.20;96.00
26990;DHT22;14537;47.788;11.858;2023-06-24T09:51:22;20.10;96.10
26990;DHT22;14537;47.788;11.858;2023-06-24T09:53:50;20.30;96.00
26990;DHT22;14537;47.788;11.858;2023-06-24T09:56:17;20.40;96.50
26990;DHT22;14537;47.788;11.858;2023-06-24T09:58:44;20.50;96.20
26990;DHT22;14537;47.788;11.858;2023-06-24T10:01:11;20.60;96.50
26990;DHT22;14537;47.788;11.858;2023-06-24T10:03:37;20.50;95.80
26990;DHT22;14537;47.788;11.858;2023-06-24T10:06:05;20.40;95.20
26990;DHT22;14537;47.788;11.858;2023-06-24T10:08:32;20.30;95.00
26990;DHT22;14537;47.788;11.858;2023-06-24T10:10:59;20.20;96.40
26990;DHT22;14537;47.788;11.858;2023-06-24T10:13:25;20.10;95.40
26990;DHT22;14537;47.788;11.858;2023-06-24T10:15:51;20.20;95.70
26990;DHT22;14537;47.788;11.858;2023-06-24T10:21:06;20.10;97.20
26990;DHT22;14537;47.788;11.858;2023-06-24T10:23:39;20.20;96.90
26990;DHT22;14537;47.788;11.858;2023-06-24T10:26:09;20.20;96.40
26990;DHT22;14537;47.788;11.858;2023-06-24T10:39:48;20.00;95.00
26990;DHT22;14537;47.788;11.858;2023-06-24T10:44:59;20.20;95.50
26990;DHT22;14537;47.788;11.858;2023-06-24T10:47:26;20.20;94.70
26990;DHT22;14537;47.788;11.858;2023-06-24T10:49:52;20.20;96.00
26990;DHT22;14537;47.788;11.858;2023-06-24T10:52:19;20.20;94.50
26990;DHT22;14537;47.788;11.858;2023-06-24T10:54:49;20.20;94.20
26990;DHT22;14537;47.788;11.858;2023-06-24T10:57:21;20.20;95.10
26990;DHT22;14537;47.788;11.858;2023-06-24T10:59:48;20.30;95.00
26990;DHT22;14537;47.788;11.858;2023-06-24T11:02:15;20.10;94.90
26990;DHT22;14537;47.788;11.858;2023-06-24T11:04:45;20.30;95.30
26990;DHT22;14537;47.788;11.858;2023-06-24T11:07:11;20.40;95.00
26990;DHT22;14537;47.788;11.858;2023-06-24T11:09:37;20.40;97.60
26990;DHT22;14537;47.788;11.858;2023-06-24T11:12:03;20.50;97.30
26990;DHT22;14537;47.788;11.858;2023-06-24T11:14:29;20.50;96.50
26990;DHT22;14537;47.788;11.858;2023-06-24T11:16:54;20.60;96.90
26990;DHT22;14537;47.788;11.858;2023-06-24T11:19:20;20.80;96.10
26990;DHT22;14537;47.788;11.858;2023-06-24T11:21:46;20.80;96.20
26990;DHT22;14537;47.788;11.858;2023-06-24T11:24:11;20.90;97.10
26990;DHT22;14537;47.788;11.858;2023-06-24T11:26:38;20.90;95.70
26990;DHT22;14537;47.788;11.858;2023-06-24T11:29:12;20.90;96.60
26990;DHT22;14537;47.788;11.858;2023-06-24T11:31:38;20.80;94.90
26990;DHT22;14537;47.788;11.858;2023-06-24T11:34:04;20.80;94.90
26990;DHT22;14537;47.788;11.858;2023-06-24T11:36:29;20.90;96.50
26990;DHT22;14537;47.788;11.858;2023-06-24T11:38:55;21.10;94.90
26990;DHT22;14537;47.788;11.858;2023-06-24T11:41:21;21.20;94.50
26990;DHT22;14537;47.788;11.858;2023-06-24T11:43:47;21.40;95.10
26990;DHT22;14537;47.788;11.858;2023-06-24T11:46:33;21.40;94.50
26990;DHT22;14537;47.788;11.858;2023-06-24T11:49:08;21.50;92.80
26990;DHT22;14537;47.788;11.858;2023-06-24T11:51:35;21.40;93.10
26990;DHT22;14537;47.788;11.858;2023-06-24T11:54:05;21.50;93.80
26990;DHT22;14537;47.788;11.858;2023-06-24T11:56:34;21.80;93.10
26990;DHT22;14537;47.788;11.858;2023-06-24T11:58:59;21.80;93.60
26990;DHT22;14537;47.788;11.858;2023-06-24T12:01:33;21.80;93.80
26990;DHT22;14537;47.788;11.858;2023-06-24T12:04:18;21.80;93.90
26990;DHT22;14537;47.788;11.858;2023-06-24T12:06:44;21.90;91.00
26990;DHT22;14537;47.788;11.858;2023-06-24T12:09:10;21.90;92.90
26990;DHT22;14537;47.788;11.858;2023-06-24T12:11:36;22.00;93.00
26990;DHT22;14537;47.788;11.858;2023-06-24T12:14:02;22.30;94.10
26990;DHT22;14537;47.788;11.858;2023-06-24T12:16:28;22.60;94.10
26990;DHT22;14537;47.788;11.858;2023-06-24T12:18:54;22.60;90.90
26990;DHT22;14537;47.788;11.858;2023-06-24T12:21:20;22.00;91.30
26990;DHT22;14537;47.788;11.858;2023-06-24T12:23:45;21.40;90.90
26990;DHT22;14537;47.788;11.858;2023-06-24T12:26:11;21.00;92.20
26990;DHT22;14537;47.788;11.858;2023-06-24T12:28:37;21.00;92.70
26990;DHT22;14537;47.788;11.858;2023-06-24T12:31:03;21.10;93.30
26990;DHT22;14537;47.788;11.858;2023-06-24T12:33:30;21.30;93.10
26990;DHT22;14537;47.788;11.858;2023-06-24T12:35:55;21.70;94.30
26990;DHT22;14537;47.788;11.858;2023-06-24T12:38:21;22.10;93.90
26990;DHT22;14537;47.788;11.858;2023-06-24T12:40:47;22.40;93.20
26990;DHT22;14537;47.788;11.858;2023-06-24T12:43:13;22.50;92.30
26990;DHT22;14537;47.788;11.858;2023-06-24T12:45:40;22.70;90.40
26990;DHT22;14537;47.788;11.858;2023-06-24T12:48:12;23.00;91.50
26990;DHT22;14537;47.788;11.858;2023-06-24T12:50:38;23.40;91.20
26990;DHT22;14537;47.788;11.858;2023-06-24T12:53:04;23.80;89.60
26990;DHT22;14537;47.788;11.858;2023-06-24T12:55:30;24.00;88.30
26990;DHT22;14537;47.788;11.858;2023-06-24T12:57:55;24.20;85.20
26990;DHT22;14537;47.788;11.858;2023-06-24T13:00:22;24.30;87.20
26990;DHT22;14537;47.788;11.858;2023-06-24T13:02:49;24.30;82.50
26990;DHT22;14537;47.788;11.858;2023-06-24T13:05:15;24.20;84.00
26990;DHT22;14537;47.788;11.858;2023-06-24T13:07:41;24.10;82.80
26990;DHT22;14537;47.788;11.858;2023-06-24T13:10:07;23.90;86.00
26990;DHT22;14537;47.788;11.858;2023-06-24T13:12:33;24.00;83.90
26990;DHT22;14537;47.788;11.858;2023-06-24T13:14:59;24.10;84.20
26990;DHT22;14537;47.788;11.858;2023-06-24T13:17:25;24.40;84.00
26990;DHT22;14537;47.788;11.858;2023-06-24T13:19:51;24.90;82.30
26990;DHT22;14537;47.788;11.858;2023-06-24T13:22:17;25.30;84.50
26990;DHT22;14537;47.788;11.858;2023-06-24T13:24:43;25.40;82.30
26990;DHT22;14537;47.788;11.858;2023-06-24T13:27:10;25.60;82.00
26990;DHT22;14537;47.788;11.858;2023-06-24T13:29:35;25.40;76.20
26990;DHT22;14537;47.788;11.858;2023-06-24T13:32:01;25.70;77.00
26990;DHT22;14537;47.788;11.858;2023-06-24T13:34:27;25.80;74.50
26990;DHT22;14537;47.788;11.858;2023-06-24T13:36:52;25.80;71.60
26990;DHT22;14537;47.788;11.858;2023-06-24T13:39:18;26.00;77.10
26990;DHT22;14537;47.788;11.858;2023-06-24T13:41:44;26.20;74.00
26990;DHT22;14537;47.788;11.858;2023-06-24T13:44:10;26.60;72.20
26990;DHT22;14537;47.788;11.858;2023-06-24T13:46:36;26.80;73.80
26990;DHT22;14537;47.788;11.858;2023-06-24T13:49:02;27.10;75.40
26990;DHT22;14537;47.788;11.858;2023-06-24T13:51:28;27.20;74.40
26990;DHT22;14537;47.788;11.858;2023-06-24T13:53:54;27.00;72.00
26990;DHT22;14537;47.788;11.858;2023-06-24T13:56:21;26.50;69.20
26990;DHT22;14537;47.788;11.858;2023-06-24T13:58:47;26.30;70.10
26990;DHT22;14537;47.788;11.858;2023-06-24T14:01:13;26.20;68.90
26990;DHT22;14537;47.788;11.858;2023-06-24T14:03:39;26.10;69.80
26990;DHT22;14537;47.788;11.858;2023-06-24T14:06:05;26.50;67.60
26990;DHT22;14537;47.788;11.858;2023-06-24T14:08:31;26.70;66.90
26990;DHT22;14537;47.788;11.858;2023-06-24T14:10:58;26.80;65.50
26990;DHT22;14537;47.788;11.858;2023-06-24T14:13:25;26.60;67.90
26990;DHT22;14537;47.788;11.858;2023-06-24T14:15:50;27.00;71.30
26990;DHT22;14537;47.788;11.858;2023-06-24T14:18:16;27.40;70.60
26990;DHT22;14537;47.788;11.858;2023-06-24T14:20:42;27.60;68.80
26990;DHT22;14537;47.788;11.858;2023-06-24T14:23:07;28.00;69.90
26990;DHT22;14537;47.788;11.858;2023-06-24T14:25:33;28.30;67.50
26990;DHT22;14537;47.788;11.858;2023-06-24T14:27:58;28.60;64.90
26990;DHT22;14537;47.788;11.858;2023-06-24T14:30:24;28.60;63.30
26990;DHT22;14537;47.788;11.858;2023-06-24T14:32:50;28.40;59.50
26990;DHT22;14537;47.788;11.858;2023-06-24T14:35:16;28.50;63.60
26990;DHT22;14537;47.788;11.858;2023-06-24T14:37:41;29.10;62.40
26990;DHT22;14537;47.788;11.858;2023-06-24T14:40:08;29.50;60.50
26990;DHT22;14537;47.788;11.858;2023-06-24T14:42:35;29.70;58.30
26990;DHT22;14537;47.788;11.858;2023-06-24T14:45:00;30.10;59.90
26990;DHT22;14537;47.788;11.858;2023-06-24T14:47:26;30.30;58.90
26990;DHT22;14537;47.788;11.858;2023-06-24T14:49:51;30.10;55.60
26990;DHT22;14537;47.788;11.858;2023-06-24T14:52:17;30.50;58.50
26990;DHT22;14537;47.788;11.858;2023-06-24T14:54:43;30.70;57.70
26990;DHT22;14537;47.788;11.858;2023-06-24T14:57:08;31.20;58.20
26990;DHT22;14537;47.788;11.858;2023-06-24T14:59:34;31.50;56.00
26990;DHT22;14537;47.788;11.858;2023-06-24T15:01:59;31.00;55.20
26990;DHT22;14537;47.788;11.858;2023-06-24T15:04:25;30.20;54.40
26990;DHT22;14537;47.788;11.858;2023-06-24T15:06:51;29.20;55.30
26990;DHT22;14537;47.788;11.858;2023-06-24T15:09:16;28.40;57.10
26990;DHT22;14537;47.788;11.858;2023-06-24T15:11:42;27.70;57.00
26990;DHT22;14537;47.788;11.858;2023-06-24T15:14:07;27.10;59.80
26990;DHT22;14537;47.788;11.858;2023-06-24T15:16:33;26.90;60.40
26990;DHT22;14537;47.788;11.858;2023-06-24T15:18:59;28.30;57.80
26990;DHT22;14537;47.788;11.858;2023-06-24T15:21:24;29.90;55.60
26990;DHT22;14537;47.788;11.858;2023-06-24T15:23:50;31.30;51.30
26990;DHT22;14537;47.788;11.858;2023-06-24T15:26:15;32.10;50.60
26990;DHT22;14537;47.788;11.858;2023-06-24T15:28:41;32.60;49.50
26990;DHT22;14537;47.788;11.858;2023-06-24T15:31:06;33.40;49.40
26990;DHT22;14537;47.788;11.858;2023-06-24T15:33:32;34.50;48.10